Time;durP1;ratioP1;P1;durP2;ratioP2;P2;SDS_P1;SDS_P2;PMS_P1;PMS_P2;Temp;Humidity;BMP_temperature;BMP_pressure;BME280_temperature;BME280_humidity;BME280_pressure;Samples;Min_cycle;Max_cycle;Signal;HPM_P1;HPM_P2
2021/09/17 00:03:59;;;;;;;6.80;6.20;;;18.10;44.60;;;;;;10433646;28;20232;-78
2021/09/17 00:09:03;;;;;;;6.50;5.90;;;18.10;44.50;;;;;;10429691;28;20225;-78
2021/09/17 00:14:08;;;;;;;5.80;5.30;;;18.10;44.90;;;;;;10429963;28;20354;-78
2021/09/17 00:19:11;;;;;;;6.70;5.83;;;18.10;45.00;;;;;;10430559;28;20606;-78
2021/09/17 00:24:14;;;;;;;6.53;5.87;;;18.20;45.10;;;;;;10438400;28;20218;-78
2021/09/17 00:29:19;;;;;;;5.93;5.30;;;18.20;45.00;;;;;;10432048;28;20233;-78
2021/09/17 00:34:24;;;;;;;6.80;6.10;;;18.20;44.80;;;;;;10433761;28;20239;-78
2021/09/17 00:39:27;;;;;;;6.23;5.63;;;18.20;44.70;;;;;;10435724;28;20601;-78
2021/09/17 00:44:32;;;;;;;6.03;5.53;;;18.10;44.70;;;;;;10430125;28;20702;-78
2021/09/17 00:49:35;;;;;;;6.37;5.77;;;18.10;44.90;;;;;;10430761;28;20232;-78
2021/09/17 00:54:38;;;;;;;6.20;5.70;;;18.10;44.80;;;;;;10435630;28;20235;-78
2021/09/17 00:59:43;;;;;;;6.20;5.70;;;18.10;44.90;;;;;;10435349;28;20226;-79
2021/09/17 01:04:46;;;;;;;5.40;5.00;;;18.10;45.00;;;;;;10422826;28;20218;-78
2021/09/17 01:09:50;;;;;;;5.27;4.87;;;18.10;45.10;;;;;;10437543;28;20225;-78
2021/09/17 01:14:56;;;;;;;5.20;4.80;;;18.10;45.30;;;;;;10433744;28;20220;-77
2021/09/17 01:19:59;;;;;;;5.60;5.20;;;18.20;45.10;;;;;;10432679;28;20244;-78
2021/09/17 01:25:05;;;;;;;6.43;5.53;;;18.20;45.00;;;;;;10436150;28;20220;-78
2021/09/17 01:30:10;;;;;;;6.30;5.70;;;18.20;44.70;;;;;;10430238;28;20220;-78
2021/09/17 01:35:16;;;;;;;6.03;5.53;;;18.20;44.40;;;;;;10437471;28;20235;-79
2021/09/17 01:40:21;;;;;;;5.20;4.70;;;18.10;44.40;;;;;;10434163;28;20224;-79
2021/09/17 01:45:25;;;;;;;5.53;5.03;;;18.10;44.50;;;;;;10429650;28;20230;-78
2021/09/17 01:50:28;;;;;;;7.17;6.10;;;18.00;44.50;;;;;;10426698;28;20227;-78
2021/09/17 01:55:33;;;;;;;5.03;4.63;;;18.00;44.50;;;;;;10422487;28;20248;-78
2021/09/17 02:00:36;;;;;;;6.27;5.70;;;18.00;44.60;;;;;;10428878;28;20895;-78
2021/09/17 02:05:39;;;;;;;6.60;6.00;;;18.00;44.50;;;;;;10422569;28;20930;-78
2021/09/17 02:10:44;;;;;;;5.97;5.47;;;18.00;44.30;;;;;;10435686;28;20225;-78
2021/09/17 02:15:48;;;;;;;6.00;5.40;;;18.00;44.20;;;;;;10428630;28;20758;-78
2021/09/17 02:20:51;;;;;;;5.50;4.93;;;17.90;44.10;;;;;;10425829;28;20744;-77
2021/09/17 02:25:56;;;;;;;6.73;6.13;;;17.90;44.10;;;;;;10426423;28;20229;-78
2021/09/17 02:30:59;;;;;;;5.87;5.37;;;17.90;43.90;;;;;;10419478;28;20239;-78
2021/09/17 02:36:02;;;;;;;7.13;6.53;;;17.80;44.00;;;;;;10425727;28;20228;-78
2021/09/17 02:41:07;;;;;;;7.00;6.40;;;17.80;43.90;;;;;;10437420;28;20233;-78
2021/09/17 02:46:10;;;;;;;8.20;7.27;;;17.70;43.80;;;;;;10423911;28;20257;-78
2021/09/17 02:51:13;;;;;;;8.10;7.40;;;17.70;43.90;;;;;;10414659;28;20225;-78
2021/09/17 02:56:18;;;;;;;6.10;5.57;;;17.70;43.90;;;;;;10426709;28;20242;-77
2021/09/17 03:01:21;;;;;;;8.60;7.80;;;17.60;43.90;;;;;;10426015;28;20240;-77
2021/09/17 03:06:25;;;;;;;8.87;8.00;;;17.50;43.90;;;;;;10414925;28;20233;-77
2021/09/17 03:11:29;;;;;;;8.40;7.60;;;17.50;43.70;;;;;;10433937;28;20229;-78
2021/09/17 03:16:33;;;;;;;9.43;8.53;;;17.30;43.50;;;;;;10422958;28;20225;-78
2021/09/17 03:21:36;;;;;;;7.93;7.13;;;17.20;43.70;;;;;;10430532;28;20231;-78
2021/09/17 03:26:41;;;;;;;7.73;7.03;;;17.00;43.90;;;;;;10432900;28;20224;-77
2021/09/17 03:31:44;;;;;;;8.73;8.03;;;16.90;44.20;;;;;;10438574;28;20214;-78
2021/09/17 03:36:47;;;;;;;9.27;8.27;;;16.90;44.20;;;;;;10445523;28;20231;-78
2021/09/17 03:41:52;;;;;;;8.70;7.80;;;16.80;44.10;;;;;;10432203;28;20619;-78
2021/09/17 03:46:55;;;;;;;8.80;8.00;;;16.70;44.40;;;;;;10435717;28;20255;-78
2021/09/17 03:51:58;;;;;;;8.40;7.60;;;16.60;44.50;;;;;;10425211;28;20614;-78
2021/09/17 03:57:03;;;;;;;9.27;8.37;;;16.60;44.90;;;;;;10430810;28;20229;-77
2021/09/17 04:02:06;;;;;;;8.77;7.97;;;16.50;45.10;;;;;;10427722;28;20236;-78
2021/09/17 04:07:10;;;;;;;9.10;8.30;;;16.40;44.90;;;;;;10437644;28;20676;-78
2021/09/17 04:12:15;;;;;;;10.23;9.17;;;16.40;45.50;;;;;;10431610;28;20222;-77
2021/09/17 04:17:18;;;;;;;9.50;8.63;;;16.30;45.50;;;;;;10432484;28;20234;-78
2021/09/17 04:22:21;;;;;;;9.60;8.27;;;16.20;45.40;;;;;;10434015;28;20225;-77
2021/09/17 04:27:26;;;;;;;9.77;8.87;;;16.20;45.40;;;;;;10430511;28;20241;-78
2021/09/17 04:32:29;;;;;;;9.97;8.97;;;16.20;45.80;;;;;;10437429;28;20726;-77
2021/09/17 04:37:33;;;;;;;10.30;9.30;;;16.20;45.80;;;;;;10425993;28;20507;-78
2021/09/17 04:42:38;;;;;;;9.40;8.50;;;16.30;45.80;;;;;;10434551;28;20313;-78
2021/09/17 04:47:42;;;;;;;9.60;8.73;;;16.30;46.30;;;;;;10424634;28;20286;-78
2021/09/17 04:52:47;;;;;;;9.70;8.80;;;16.30;46.10;;;;;;10428413;28;20217;-78
2021/09/17 04:57:52;;;;;;;9.23;8.47;;;16.40;46.30;;;;;;10421432;28;20275;-76
2021/09/17 05:02:55;;;;;;;8.83;8.03;;;16.50;46.50;;;;;;10428956;28;20232;-77
2021/09/17 05:07:58;;;;;;;10.13;9.13;;;16.50;45.70;;;;;;10426061;28;20229;-77
2021/09/17 05:13:03;;;;;;;11.73;9.80;;;16.60;45.80;;;;;;10431174;28;20235;-76
2021/09/17 05:18:06;;;;;;;10.97;9.97;;;16.60;47.90;;;;;;10425132;28;20232;-76
2021/09/17 05:23:10;;;;;;;10.57;9.57;;;16.70;46.70;;;;;;10425016;28;20232;-76
2021/09/17 05:28:14;;;;;;;12.17;10.90;;;16.80;46.50;;;;;;10426839;28;20233;-77
2021/09/17 05:33:17;;;;;;;10.50;9.47;;;16.90;46.30;;;;;;10430651;28;20229;-76
2021/09/17 05:38:20;;;;;;;11.30;10.17;;;16.90;46.70;;;;;;10425118;28;20235;-76
2021/09/17 05:43:25;;;;;;;10.77;9.77;;;16.90;46.00;;;;;;10426356;28;20237;-77
2021/09/17 05:48:28;;;;;;;11.90;10.80;;;16.90;46.30;;;;;;10424701;28;20229;-76
2021/09/17 05:53:31;;;;;;;12.23;11.03;;;16.90;46.00;;;;;;10421341;28;20244;-76
2021/09/17 05:58:37;;;;;;;13.57;10.97;;;16.90;46.00;;;;;;10418897;28;20442;-77
2021/09/17 06:03:41;;;;;;;12.50;11.33;;;16.90;46.40;;;;;;10426576;28;20228;-76
2021/09/17 06:08:44;;;;;;;11.53;10.47;;;16.90;46.00;;;;;;10426744;28;20630;-76
2021/09/17 06:13:49;;;;;;;12.23;11.03;;;16.90;46.00;;;;;;10424767;28;20307;-76
2021/09/17 06:19:00;;;;;;;13.23;11.87;;;16.90;46.50;;;;;;10425943;28;20598;-76
2021/09/17 06:24:03;;;;;;;13.13;11.93;;;17.00;46.30;;;;;;10418400;28;20222;-76
2021/09/17 06:29:09;;;;;;;12.60;11.47;;;17.00;46.50;;;;;;10422845;28;20225;-76
2021/09/17 06:34:12;;;;;;;13.03;11.83;;;17.00;46.30;;;;;;10426709;28;20217;-76
2021/09/17 06:39:17;;;;;;;13.80;12.40;;;17.00;46.10;;;;;;10419180;28;20230;-76
2021/09/17 06:44:22;;;;;;;13.87;12.47;;;17.00;46.10;;;;;;10421363;28;20243;-77
2021/09/17 06:49:26;;;;;;;12.33;11.23;;;17.10;46.20;;;;;;10421957;28;20657;-77
2021/09/17 06:54:30;;;;;;;13.60;11.73;;;17.00;46.10;;;;;;10435173;28;20589;-76
2021/09/17 06:59:35;;;;;;;12.63;11.33;;;17.10;46.40;;;;;;10419705;28;20616;-76
2021/09/17 07:04:40;;;;;;;12.90;11.70;;;16.90;46.10;;;;;;10417292;28;20225;-76
2021/09/17 07:09:43;;;;;;;12.93;11.73;;;17.20;46.30;;;;;;10422759;28;20723;-76
2021/09/17 07:14:48;;;;;;;12.70;11.20;;;17.20;46.30;;;;;;10420859;28;20224;-76
2021/09/17 07:19:51;;;;;;;11.97;10.93;;;17.30;46.40;;;;;;10419753;28;20264;-76
2021/09/17 07:24:55;;;;;;;13.27;11.93;;;17.30;47.00;;;;;;10427002;28;20235;-77
2021/09/17 07:30:01;;;;;;;14.43;12.53;;;17.40;46.50;;;;;;10428454;28;20228;-76
2021/09/17 07:35:06;;;;;;;12.00;10.93;;;17.40;46.50;;;;;;10427936;28;20227;-76
2021/09/17 07:40:13;;;;;;;12.47;11.27;;;17.50;46.50;;;;;;10424394;28;20231;-77
2021/09/17 07:45:18;;;;;;;11.90;10.80;;;17.50;46.50;;;;;;10425548;28;20226;-78
2021/09/17 07:50:22;;;;;;;12.33;11.13;;;17.50;47.40;;;;;;10422594;28;20237;-79
2021/09/17 07:55:26;;;;;;;12.53;11.43;;;17.60;47.30;;;;;;10426502;28;20233;-80
2021/09/17 08:00:30;;;;;;;12.00;11.00;;;17.60;47.10;;;;;;10421531;28;20351;-81
2021/09/17 08:05:34;;;;;;;12.77;11.57;;;17.80;46.80;;;;;;10420429;28;20229;-80
2021/09/17 08:10:37;;;;;;;13.60;12.33;;;17.80;46.80;;;;;;10427663;28;20228;-80
2021/09/17 08:15:42;;;;;;;13.10;11.80;;;17.90;46.90;;;;;;10432883;28;20230;-79
2021/09/17 08:20:49;;;;;;;12.83;11.60;;;17.90;46.90;;;;;;10427472;28;20274;-81
2021/09/17 08:25:55;;;;;;;12.10;11.00;;;18.00;47.00;;;;;;10425281;28;20248;-79
2021/09/17 08:31:01;;;;;;;12.17;11.07;;;18.00;47.00;;;;;;10423298;28;20237;-81
2021/09/17 08:36:05;;;;;;;12.37;11.27;;;18.00;47.00;;;;;;10427637;28;20240;-80
2021/09/17 08:41:10;;;;;;;13.50;12.20;;;18.10;46.70;;;;;;10425615;28;20307;-80
2021/09/17 08:46:15;;;;;;;13.80;12.60;;;18.10;47.10;;;;;;10432266;28;20233;-79
2021/09/17 08:51:19;;;;;;;14.30;13.00;;;18.10;47.10;;;;;;10428477;28;20225;-80
2021/09/17 08:56:22;;;;;;;13.87;12.67;;;18.10;46.50;;;;;;10426259;28;20233;-79
2021/09/17 09:01:29;;;;;;;13.17;11.87;;;18.20;47.10;;;;;;10426216;28;20260;-80
2021/09/17 09:06:36;;;;;;;13.77;12.53;;;18.20;47.20;;;;;;10423091;28;20256;-79
2021/09/17 09:11:39;;;;;;;14.43;13.03;;;18.30;47.20;;;;;;10429309;28;20236;-79
2021/09/17 09:16:45;;;;;;;13.03;11.70;;;18.30;46.90;;;;;;10430733;28;20229;-77
2021/09/17 09:21:50;;;;;;;14.47;13.17;;;18.40;47.30;;;;;;10423366;28;21726;-75
2021/09/17 09:27:11;;;;;;;13.53;12.33;;;18.40;47.10;;;;;;10424798;28;20233;-75
2021/09/17 09:32:29;;;;;;;13.10;11.90;;;18.50;47.30;;;;;;10431950;28;20217;-75
2021/09/17 09:37:35;;;;;;;14.10;12.90;;;18.60;47.50;;;;;;10429804;28;20228;-75
2021/09/17 09:42:41;;;;;;;13.27;12.13;;;18.70;47.00;;;;;;10430849;28;20914;-76
2021/09/17 09:47:48;;;;;;;13.13;12.03;;;18.80;46.90;;;;;;10427142;28;20237;-75
2021/09/17 09:52:52;;;;;;;12.97;11.83;;;18.80;47.30;;;;;;10420318;28;20226;-76
2021/09/17 09:57:57;;;;;;;13.33;12.00;;;18.90;46.70;;;;;;10428768;28;20283;-75
2021/09/17 10:03:06;;;;;;;12.20;11.20;;;19.00;46.50;;;;;;10410197;28;20233;-74
2021/09/17 10:08:12;;;;;;;12.87;11.67;;;19.10;47.10;;;;;;10413874;28;20244;-75
2021/09/17 10:13:15;;;;;;;11.37;10.47;;;19.20;46.40;;;;;;10411675;28;20978;-75
2021/09/17 10:18:21;;;;;;;12.10;11.00;;;19.30;46.60;;;;;;10417128;28;20268;-75
2021/09/17 10:23:31;;;;;;;11.63;10.57;;;19.40;46.70;;;;;;10420238;28;20232;-75
2021/09/17 10:28:50;;;;;;;12.23;10.83;;;19.50;46.60;;;;;;10418872;28;20248;-75
2021/09/17 10:33:54;;;;;;;12.40;11.20;;;19.60;46.50;;;;;;10421760;28;20216;-75
2021/09/17 10:39:15;;;;;;;13.03;11.47;;;19.70;45.80;;;;;;10424334;28;20221;-75
2021/09/17 10:44:18;;;;;;;12.17;11.10;;;19.90;45.50;;;;;;10423999;28;20225;-75
2021/09/17 10:49:22;;;;;;;11.73;10.77;;;20.00;45.80;;;;;;10426530;28;20250;-74
2021/09/17 10:54:37;;;;;;;13.57;12.47;;;20.10;45.40;;;;;;10431463;28;20221;-74
2021/09/17 10:59:52;;;;;;;12.20;11.10;;;20.20;43.30;;;;;;10437792;28;20235;-74
2021/09/17 11:05:14;;;;;;;9.03;8.23;;;20.20;44.50;;;;;;10432351;28;20227;-74
2021/09/17 11:10:26;;;;;;;8.63;7.93;;;20.30;44.20;;;;;;10431083;28;20226;-73
2021/09/17 11:15:30;;;;;;;8.10;7.40;;;20.30;43.60;;;;;;10436482;28;20251;-74
2021/09/17 11:20:36;;;;;;;7.63;7.00;;;20.40;44.60;;;;;;10431939;28;20225;-74
2021/09/17 11:25:43;;;;;;;5.60;5.20;;;20.60;43.90;;;;;;10435066;28;20231;-73
2021/09/17 11:30:46;;;;;;;4.67;4.20;;;20.70;43.60;;;;;;10423919;28;20229;-74
2021/09/17 11:35:51;;;;;;;4.50;4.10;;;20.80;44.00;;;;;;10411545;28;20225;-73
2021/09/17 11:40:56;;;;;;;4.07;3.77;;;21.00;42.70;;;;;;10412508;28;21001;-74
2021/09/17 11:45:59;;;;;;;3.53;2.80;;;21.10;42.10;;;;;;10423534;28;20232;-74
2021/09/17 11:51:11;;;;;;;3.40;3.17;;;21.20;42.30;;;;;;10431963;28;20230;-74
2021/09/17 11:56:14;;;;;;;2.97;2.77;;;21.20;40.00;;;;;;10438351;28;20225;-74
2021/09/17 12:01:23;;;;;;;3.20;3.00;;;21.30;42.00;;;;;;10442646;28;20217;-74
2021/09/17 12:06:28;;;;;;;3.20;2.90;;;21.30;42.00;;;;;;10439714;28;20275;-73
2021/09/17 12:11:31;;;;;;;3.90;3.50;;;21.40;40.50;;;;;;10443762;28;20228;-74
2021/09/17 12:16:34;;;;;;;3.83;3.53;;;21.40;41.30;;;;;;10439691;28;20225;-74
2021/09/17 12:21:39;;;;;;;3.83;3.53;;;21.50;41.40;;;;;;10439045;28;20283;-74
2021/09/17 12:26:54;;;;;;;3.50;3.20;;;21.50;40.90;;;;;;10446976;28;20280;-73
2021/09/17 12:32:14;;;;;;;2.27;2.10;;;21.50;39.30;;;;;;10444340;28;20239;-74
2021/09/17 12:37:23;;;;;;;1.90;1.80;;;21.50;39.20;;;;;;10443243;28;21026;-73
2021/09/17 12:42:26;;;;;;;3.40;2.70;;;21.50;39.80;;;;;;10438178;28;20731;-74
2021/09/17 12:47:30;;;;;;;2.60;2.40;;;21.60;40.10;;;;;;10427433;28;21906;-74
2021/09/17 12:52:37;;;;;;;3.70;3.40;;;21.50;40.30;;;;;;10434274;28;20320;-76
2021/09/17 12:57:54;;;;;;;3.10;2.90;;;21.60;39.80;;;;;;10433073;28;20355;-76
2021/09/17 13:02:57;;;;;;;3.50;3.27;;;21.60;39.10;;;;;;10427783;28;20734;-76
2021/09/17 13:08:02;;;;;;;3.53;2.67;;;21.80;40.10;;;;;;10427634;28;20229;-74
2021/09/17 13:13:06;;;;;;;3.70;3.20;;;21.80;39.80;;;;;;10423659;28;20213;-77
2021/09/17 13:18:09;;;;;;;3.80;3.60;;;22.00;39.50;;;;;;10427134;28;20307;-74
2021/09/17 13:23:15;;;;;;;2.93;2.73;;;22.10;38.60;;;;;;10431618;28;20225;-74
2021/09/17 13:28:18;;;;;;;3.30;3.10;;;22.20;38.40;;;;;;10429023;28;20236;-74
2021/09/17 13:33:21;;;;;;;3.17;2.97;;;22.20;39.00;;;;;;10434656;28;25395;-76
2021/09/17 13:38:26;;;;;;;3.00;2.80;;;22.30;38.50;;;;;;10428709;28;20830;-77
2021/09/17 13:43:29;;;;;;;2.40;2.20;;;22.30;38.50;;;;;;10429289;28;20255;-76
2021/09/17 13:48:32;;;;;;;2.57;2.40;;;22.30;38.50;;;;;;10425632;28;20232;-76
2021/09/17 13:53:37;;;;;;;2.03;1.93;;;22.30;38.50;;;;;;10433207;28;20701;-76
2021/09/17 13:58:40;;;;;;;2.17;1.97;;;22.30;38.50;;;;;;10430913;28;20221;-76
2021/09/17 14:03:43;;;;;;;2.00;1.87;;;22.30;37.90;;;;;;10425914;28;20241;-76
2021/09/17 14:08:48;;;;;;;2.97;2.10;;;22.30;38.50;;;;;;10423051;28;20236;-76
2021/09/17 14:13:51;;;;;;;2.37;2.27;;;22.30;37.40;;;;;;10425205;28;20228;-76
2021/09/17 14:18:55;;;;;;;2.60;2.40;;;22.40;38.00;;;;;;10432643;28;20225;-76
2021/09/17 14:23:59;;;;;;;2.10;1.87;;;22.40;38.00;;;;;;10427105;28;20801;-76
2021/09/17 14:29:02;;;;;;;1.90;1.80;;;22.50;37.30;;;;;;10421818;28;20224;-76
2021/09/17 14:34:06;;;;;;;1.80;1.70;;;22.50;38.00;;;;;;10427072;28;20240;-76
2021/09/17 14:39:10;;;;;;;2.20;1.57;;;22.50;37.60;;;;;;10422076;28;20237;-76
2021/09/17 14:44:14;;;;;;;1.70;1.60;;;22.50;36.50;;;;;;10421191;28;20239;-76
2021/09/17 14:49:18;;;;;;;1.73;1.60;;;22.50;37.40;;;;;;10420912;28;20228;-74
2021/09/17 14:54:22;;;;;;;2.60;1.50;;;22.40;37.30;;;;;;10423061;28;20363;-74
2021/09/17 14:59:27;;;;;;;1.43;1.33;;;22.50;36.50;;;;;;10425568;28;20313;-75
2021/09/17 15:04:32;;;;;;;1.60;1.50;;;22.50;36.80;;;;;;10418649;28;20229;-73
2021/09/17 15:09:37;;;;;;;1.60;1.50;;;22.60;36.80;;;;;;10424918;28;20233;-74
2021/09/17 15:14:40;;;;;;;1.60;1.50;;;22.60;36.10;;;;;;10424086;28;20768;-76
2021/09/17 15:19:43;;;;;;;1.47;1.37;;;22.70;36.70;;;;;;10431424;28;20370;-76
2021/09/17 15:24:48;;;;;;;1.50;1.40;;;22.80;36.20;;;;;;10432336;28;20225;-76
2021/09/17 15:29:52;;;;;;;1.77;1.67;;;22.70;35.40;;;;;;10425912;28;20232;-77
2021/09/17 15:34:55;;;;;;;1.63;1.53;;;22.70;36.50;;;;;;10430303;28;20234;-76
2021/09/17 15:39:59;;;;;;;1.60;1.40;;;22.70;35.90;;;;;;10428369;28;20217;-76
2021/09/17 15:45:03;;;;;;;2.87;1.70;;;22.60;35.50;;;;;;10422377;28;20217;-76
2021/09/17 15:50:09;;;;;;;1.50;1.40;;;22.60;36.30;;;;;;10424824;28;20591;-75
2021/09/17 15:55:14;;;;;;;1.37;1.37;;;22.60;36.00;;;;;;10429751;28;20344;-74
2021/09/17 16:00:17;;;;;;;1.67;1.57;;;22.70;36.10;;;;;;10431238;28;20229;-74
2021/09/17 16:05:21;;;;;;;1.50;1.50;;;22.70;36.70;;;;;;10426929;28;20261;-73
2021/09/17 16:10:26;;;;;;;1.70;1.60;;;22.70;36.70;;;;;;10430759;28;20223;-72
2021/09/17 16:15:29;;;;;;;2.13;1.80;;;22.80;36.00;;;;;;10427475;28;20243;-72
2021/09/17 16:20:34;;;;;;;3.53;1.60;;;22.80;36.50;;;;;;10423697;28;20231;-73
2021/09/17 16:25:39;;;;;;;2.03;1.83;;;22.80;36.40;;;;;;10427578;28;20253;-73
2021/09/17 16:30:42;;;;;;;1.80;1.70;;;22.80;36.20;;;;;;10424694;28;20229;-73
2021/09/17 16:35:45;;;;;;;2.10;2.00;;;22.80;36.80;;;;;;10425711;28;20228;-73
2021/09/17 16:40:50;;;;;;;4.70;1.73;;;22.70;36.50;;;;;;10426924;28;20225;-73
2021/09/17 16:45:53;;;;;;;3.20;1.80;;;22.70;36.30;;;;;;10428203;28;20233;-73
2021/09/17 16:50:57;;;;;;;2.70;2.43;;;22.70;36.60;;;;;;10430152;28;20221;-73
2021/09/17 16:56:01;;;;;;;2.60;2.40;;;22.60;36.60;;;;;;10429252;28;20229;-73
2021/09/17 17:01:04;;;;;;;2.83;2.13;;;22.60;36.50;;;;;;10427947;28;20224;-73
2021/09/17 17:06:08;;;;;;;3.13;1.90;;;22.50;37.30;;;;;;10432244;28;20282;-73
2021/09/17 17:11:13;;;;;;;1.90;1.80;;;22.50;37.40;;;;;;10427715;28;20226;-73
2021/09/17 17:16:16;;;;;;;1.83;1.73;;;22.40;37.10;;;;;;10429044;28;20235;-73
2021/09/17 17:21:20;;;;;;;1.90;1.80;;;22.30;36.90;;;;;;10424918;28;20227;-74
2021/09/17 17:26:24;;;;;;;1.80;1.70;;;22.30;37.10;;;;;;10422289;28;20244;-74
2021/09/17 17:31:28;;;;;;;1.50;1.40;;;22.20;37.10;;;;;;10428498;28;20229;-74
2021/09/17 17:36:31;;;;;;;2.00;1.90;;;22.00;37.20;;;;;;10423714;28;20304;-74
2021/09/17 17:41:36;;;;;;;2.73;2.50;;;21.90;37.20;;;;;;10423372;28;20240;-73
2021/09/17 17:46:39;;;;;;;2.63;2.17;;;21.90;36.80;;;;;;10424182;28;20228;-75
2021/09/17 17:51:43;;;;;;;2.20;2.10;;;21.80;37.20;;;;;;10425959;28;20221;-74
2021/09/17 17:56:47;;;;;;;2.40;2.20;;;21.70;37.60;;;;;;10429303;28;20259;-74
2021/09/17 18:01:50;;;;;;;4.60;4.30;;;21.60;37.90;;;;;;10420227;28;20237;-75
2021/09/17 18:06:54;;;;;;;2.50;2.40;;;21.60;37.90;;;;;;10416986;28;20266;-74
2021/09/17 18:11:59;;;;;;;1.97;1.87;;;21.60;37.90;;;;;;10416385;28;20708;-74
2021/09/17 18:17:02;;;;;;;1.87;1.77;;;21.50;37.80;;;;;;10425293;28;20225;-74
2021/09/17 18:22:05;;;;;;;2.27;2.10;;;21.50;37.80;;;;;;10415061;28;20890;-74
2021/09/17 18:27:10;;;;;;;1.90;1.80;;;21.40;37.70;;;;;;10414169;28;20229;-74
2021/09/17 18:32:16;;;;;;;2.00;1.90;;;21.40;37.80;;;;;;10419859;28;20220;-74
2021/09/17 18:37:21;;;;;;;2.10;2.00;;;21.30;37.60;;;;;;10411278;28;20239;-74
2021/09/17 18:42:25;;;;;;;2.00;1.90;;;21.30;37.60;;;;;;10419475;28;20327;-74
2021/09/17 18:47:29;;;;;;;5.13;4.73;;;21.20;37.60;;;;;;10419590;28;20225;-74
2021/09/17 18:52:32;;;;;;;4.43;4.10;;;21.20;37.90;;;;;;10416753;28;20225;-74
2021/09/17 18:57:37;;;;;;;4.60;4.20;;;21.10;38.00;;;;;;10419247;28;20732;-74
2021/09/17 19:02:41;;;;;;;3.37;3.07;;;21.00;37.90;;;;;;10411680;28;20226;-74
2021/09/17 19:07:46;;;;;;;2.53;2.33;;;20.90;37.50;;;;;;10414252;28;20268;-75
2021/09/17 19:12:51;;;;;;;5.83;5.33;;;20.80;37.70;;;;;;10414156;28;20363;-75
2021/09/17 19:17:54;;;;;;;4.60;4.13;;;20.70;37.70;;;;;;10409252;28;20225;-75
2021/09/17 19:22:59;;;;;;;3.83;2.90;;;20.60;37.90;;;;;;10415956;28;20224;-75
2021/09/17 19:28:04;;;;;;;3.10;2.90;;;20.60;38.00;;;;;;10416353;28;20307;-76
2021/09/17 19:33:08;;;;;;;3.23;2.90;;;20.50;38.10;;;;;;10418358;28;20229;-75
2021/09/17 19:38:14;;;;;;;2.80;2.60;;;20.50;38.20;;;;;;10415805;28;20223;-75
2021/09/17 19:43:19;;;;;;;3.17;2.97;;;20.40;38.00;;;;;;10414639;28;20287;-75
2021/09/17 19:48:25;;;;;;;3.17;2.90;;;20.30;38.10;;;;;;10408675;28;20766;-75
2021/09/17 19:53:29;;;;;;;3.93;2.87;;;20.20;38.00;;;;;;10420764;28;20233;-75
2021/09/17 19:58:34;;;;;;;3.33;2.93;;;20.10;38.20;;;;;;10416780;28;20224;-75
2021/09/17 20:03:37;;;;;;;3.27;3.03;;;20.00;38.30;;;;;;10419705;28;20221;-76
2021/09/17 20:08:40;;;;;;;3.07;2.80;;;20.00;38.40;;;;;;10422168;28;20588;-76
2021/09/17 20:13:46;;;;;;;3.40;2.97;;;19.90;38.50;;;;;;10429292;28;20232;-75
2021/09/17 20:18:49;;;;;;;3.07;2.87;;;19.80;38.70;;;;;;10426069;28;20324;-76
2021/09/17 20:23:52;;;;;;;3.57;3.27;;;19.80;38.70;;;;;;10431523;28;20237;-76
2021/09/17 20:28:57;;;;;;;2.70;2.60;;;19.70;38.80;;;;;;10437198;28;20225;-76
2021/09/17 20:34:01;;;;;;;4.00;3.70;;;19.70;38.80;;;;;;10429115;28;20226;-76
2021/09/17 20:39:04;;;;;;;3.40;3.20;;;19.70;38.70;;;;;;10427805;28;20233;-76
2021/09/17 20:44:12;;;;;;;3.50;3.20;;;19.60;38.70;;;;;;10438312;28;20706;-76
2021/09/17 20:49:15;;;;;;;3.77;3.47;;;19.60;39.00;;;;;;10431364;28;20237;-76
2021/09/17 20:54:18;;;;;;;3.50;3.30;;;19.50;38.90;;;;;;10430420;28;20296;-76
2021/09/17 20:59:25;;;;;;;3.80;3.50;;;19.40;38.90;;;;;;10423130;28;20599;-76
2021/09/17 21:04:28;;;;;;;4.13;3.83;;;19.40;39.20;;;;;;10428169;28;20233;-76
2021/09/17 21:09:32;;;;;;;3.80;3.50;;;19.30;38.90;;;;;;10428577;28;20226;-76
2021/09/17 21:14:36;;;;;;;4.30;4.00;;;19.20;38.90;;;;;;10427550;28;20227;-76
2021/09/17 21:19:40;;;;;;;3.33;3.13;;;19.20;39.20;;;;;;10424180;28;20227;-76
2021/09/17 21:24:43;;;;;;;4.87;3.93;;;19.10;39.00;;;;;;10434526;28;20240;-76
2021/09/17 21:29:50;;;;;;;4.40;4.10;;;19.00;39.10;;;;;;10439029;28;20601;-75
2021/09/17 21:34:53;;;;;;;5.20;3.83;;;18.80;39.30;;;;;;10433142;28;20239;-76
2021/09/17 21:39:57;;;;;;;3.73;3.43;;;18.70;39.30;;;;;;10423908;28;20240;-76
2021/09/17 21:45:01;;;;;;;3.60;3.40;;;18.60;39.40;;;;;;10424223;28;20574;-76
2021/09/17 21:50:06;;;;;;;3.60;3.33;;;18.50;39.80;;;;;;10427252;28;20709;-76
2021/09/17 21:55:11;;;;;;;3.70;3.40;;;18.50;39.90;;;;;;10434344;28;20331;-76
2021/09/17 22:00:17;;;;;;;4.00;3.70;;;18.40;39.90;;;;;;10435290;28;20225;-75
2021/09/17 22:05:20;;;;;;;4.23;3.30;;;18.40;40.20;;;;;;10438292;28;20506;-76
2021/09/17 22:10:24;;;;;;;4.00;3.70;;;18.30;40.00;;;;;;10428780;28;20599;-75
2021/09/17 22:15:28;;;;;;;3.70;3.20;;;18.30;40.10;;;;;;10418026;28;20225;-76
2021/09/17 22:20:32;;;;;;;4.03;3.73;;;18.30;40.40;;;;;;10431944;28;20341;-75
2021/09/17 22:25:35;;;;;;;3.90;3.60;;;18.30;40.20;;;;;;10430945;28;20225;-76
2021/09/17 22:30:39;;;;;;;3.30;3.10;;;18.20;40.10;;;;;;10428603;28;20239;-76
2021/09/17 22:35:43;;;;;;;4.00;3.57;;;18.10;40.50;;;;;;10424279;28;20234;-75
2021/09/17 22:40:46;;;;;;;3.10;2.90;;;18.10;40.30;;;;;;10418175;28;20225;-75
2021/09/17 22:45:51;;;;;;;3.07;2.80;;;18.00;40.40;;;;;;10430425;28;20237;-75
2021/09/17 22:50:54;;;;;;;3.53;3.23;;;18.00;40.80;;;;;;10429882;28;20222;-75
2021/09/17 22:55:57;;;;;;;3.57;3.33;;;18.00;40.60;;;;;;10425854;28;20320;-75
2021/09/17 23:01:02;;;;;;;3.77;3.47;;;18.00;40.70;;;;;;10425888;28;20243;-75
2021/09/17 23:06:05;;;;;;;3.20;3.00;;;18.00;41.10;;;;;;10427197;28;20221;-75
2021/09/17 23:11:09;;;;;;;3.37;3.07;;;18.00;40.80;;;;;;10430838;28;20315;-75
2021/09/17 23:16:16;;;;;;;3.10;2.80;;;18.00;40.80;;;;;;10422977;28;20255;-75
2021/09/17 23:21:19;;;;;;;3.10;2.90;;;17.90;40.90;;;;;;10427061;28;20229;-75
2021/09/17 23:26:23;;;;;;;3.70;3.03;;;17.90;40.80;;;;;;10421165;28;20235;-76
2021/09/17 23:31:27;;;;;;;3.57;3.23;;;17.90;41.00;;;;;;10426252;28;20236;-75
2021/09/17 23:36:31;;;;;;;3.90;3.57;;;17.90;41.20;;;;;;10421597;28;20757;-76
2021/09/17 23:41:34;;;;;;;3.50;3.20;;;18.00;41.10;;;;;;10433195;28;20236;-76
2021/09/17 23:46:39;;;;;;;3.50;3.30;;;17.90;41.00;;;;;;10435807;28;20229;-75
2021/09/17 23:51:42;;;;;;;3.23;3.03;;;17.90;41.20;;;;;;10439979;28;20664;-75
2021/09/17 23:56:45;;;;;;;3.60;3.30;;;17.90;40.90;;;;;;10434719;28;20263;-76
